createdAt,value
2022-12-18T00:01:49.924Z,14.77
2022-12-18T00:04:52.657Z,15.05
2022-12-18T00:07:55.495Z,14.60
2022-12-18T00:11:07.066Z,14.63
2022-12-18T00:14:13.016Z,15.10
2022-12-18T00:17:15.789Z,14.50
2022-12-18T00:20:22.844Z,15.20
2022-12-18T00:23:25.814Z,14.60
2022-12-18T00:26:34.474Z,14.93
2022-12-18T00:29:41.448Z,14.98
2022-12-18T00:32:44.300Z,14.50
2022-12-18T00:35:47.090Z,15.15
2022-12-18T00:38:50.234Z,14.50
2022-12-18T00:42:12.796Z,13.43
2022-12-18T00:45:16.075Z,13.43
2022-12-18T00:48:19.159Z,14.80
2022-12-18T00:51:21.990Z,13.77
2022-12-18T00:54:25.080Z,13.23
2022-12-18T00:57:27.842Z,14.95
2022-12-18T01:00:30.637Z,14.18
2022-12-18T01:03:34.038Z,13.98
2022-12-18T01:06:37.077Z,14.98
2022-12-18T01:09:39.964Z,15.53
2022-12-18T01:12:42.904Z,14.73
2022-12-18T01:15:52.825Z,14.55
2022-12-18T01:18:56.601Z,15.05
2022-12-18T01:22:00.160Z,17.23
2022-12-18T01:25:03.766Z,15.80
2022-12-18T01:28:07.794Z,15.48
2022-12-18T01:31:26.272Z,16.73
2022-12-18T01:34:29.123Z,14.68
2022-12-18T01:37:32.183Z,15.50
2022-12-18T01:40:34.957Z,14.73
2022-12-18T01:43:49.840Z,15.27
2022-12-18T01:46:52.552Z,17.75
2022-12-18T01:49:56.888Z,17.05
2022-12-18T01:53:21.817Z,14.18
2022-12-18T01:56:24.893Z,12.50
2022-12-18T01:59:29.869Z,14.40
2022-12-18T02:02:32.783Z,14.02
2022-12-18T02:06:01.371Z,11.95
2022-12-18T02:09:21.834Z,10.63
2022-12-18T02:12:41.328Z,12.37
2022-12-18T02:16:08.319Z,11.98
2022-12-18T02:19:32.783Z,12.38
2022-12-18T02:23:05.588Z,10.75
2022-12-18T02:26:35.854Z,12.88
2022-12-18T02:29:45.544Z,12.87
2022-12-18T02:32:54.939Z,12.63
2022-12-18T02:35:59.515Z,11.73
2022-12-18T02:39:05.436Z,11.35
2022-12-18T02:42:11.239Z,12.25
2022-12-18T02:45:14.191Z,10.70
2022-12-18T02:48:20.019Z,12.90
2022-12-18T02:51:32.387Z,14.85
2022-12-18T02:54:51.488Z,16.42
2022-12-18T02:57:57.145Z,15.80
2022-12-18T03:01:19.509Z,13.57
2022-12-18T03:04:29.100Z,12.98
2022-12-18T03:08:00.860Z,14.13
2022-12-18T03:11:10.304Z,13.77
2022-12-18T03:14:17.849Z,14.73
2022-12-18T03:17:26.503Z,14.40
2022-12-18T03:20:32.597Z,15.35
2022-12-18T03:23:42.480Z,15.85
2022-12-18T03:26:50.554Z,15.32
2022-12-18T03:30:08.432Z,15.73
2022-12-18T03:33:20.785Z,15.53
2022-12-18T03:36:26.199Z,14.75
2022-12-18T03:39:29.164Z,15.82
2022-12-18T03:43:01.974Z,14.95
2022-12-18T03:46:16.793Z,14.70
2022-12-18T03:49:36.227Z,14.87
2022-12-18T03:52:47.630Z,18.13
2022-12-18T03:55:53.032Z,18.33
2022-12-18T03:58:57.809Z,17.40
2022-12-18T04:02:05.246Z,16.30
2022-12-18T04:05:09.676Z,15.53
2022-12-18T04:08:16.130Z,15.68
2022-12-18T04:11:26.046Z,15.40
2022-12-18T04:14:29.884Z,14.93
2022-12-18T04:17:33.500Z,15.10
2022-12-18T04:20:37.296Z,14.87
2022-12-18T04:23:40.907Z,15.57
2022-12-18T04:26:44.252Z,14.77
2022-12-18T04:29:51.559Z,14.73
2022-12-18T04:32:54.752Z,16.17
2022-12-18T04:35:59.070Z,15.73
2022-12-18T04:39:02.564Z,17.50
2022-12-18T04:42:05.670Z,16.55
2022-12-18T04:45:09.488Z,18.40
2022-12-18T04:48:13.522Z,17.52
2022-12-18T04:51:16.352Z,15.60
2022-12-18T04:54:19.292Z,15.95
2022-12-18T04:57:22.072Z,13.82
2022-12-18T05:00:24.852Z,13.73
2022-12-18T05:03:28.535Z,14.00
2022-12-18T05:06:31.387Z,13.63
2022-12-18T05:09:34.257Z,13.30
2022-12-18T05:12:57.412Z,13.52
2022-12-18T05:16:00.321Z,13.88
2022-12-18T05:19:03.492Z,14.65
2022-12-18T05:22:09.597Z,14.47
2022-12-18T05:25:12.754Z,14.35
2022-12-18T05:28:15.576Z,14.80
2022-12-18T05:31:18.836Z,14.45
2022-12-18T05:34:21.621Z,14.25
2022-12-18T05:37:24.699Z,14.53
2022-12-18T05:40:27.486Z,13.85
2022-12-18T05:43:31.311Z,16.35
2022-12-18T05:46:34.102Z,18.85
2022-12-18T05:49:36.958Z,25.02
2022-12-18T05:52:39.655Z,29.80
2022-12-18T05:55:43.478Z,26.13
2022-12-18T05:58:46.931Z,23.42
2022-12-18T06:01:52.352Z,23.60
2022-12-18T06:04:55.191Z,22.30
2022-12-18T06:07:57.986Z,20.87
2022-12-18T06:11:00.719Z,19.08
2022-12-18T06:14:05.034Z,16.67
2022-12-18T06:17:07.851Z,16.35
2022-12-18T06:20:11.030Z,17.50
2022-12-18T06:23:13.797Z,15.13
2022-12-18T06:26:16.529Z,16.55
2022-12-18T06:29:19.433Z,16.05
2022-12-18T06:32:23.522Z,15.52
2022-12-18T06:35:26.377Z,15.70
2022-12-18T06:38:29.147Z,15.00
2022-12-18T06:41:32.190Z,15.85
2022-12-18T06:44:35.051Z,14.57
2022-12-18T06:47:38.042Z,15.85
2022-12-18T06:50:43.678Z,16.95
2022-12-18T06:53:46.746Z,15.33
2022-12-18T06:56:49.449Z,16.80
2022-12-18T06:59:53.678Z,18.67
2022-12-18T07:02:56.544Z,17.27
2022-12-18T07:05:59.456Z,18.02
2022-12-18T07:09:02.434Z,21.63
2022-12-18T07:12:06.088Z,23.00
2022-12-18T07:15:09.284Z,26.13
2022-12-18T07:18:12.067Z,24.58
2022-12-18T07:21:18.061Z,24.05
2022-12-18T07:24:20.802Z,21.50
2022-12-18T07:27:24.036Z,24.42
2022-12-18T07:30:27.418Z,27.35
2022-12-18T07:33:30.149Z,26.30
2022-12-18T07:36:33.709Z,24.23
2022-12-18T07:39:36.486Z,25.30
2022-12-18T07:42:39.578Z,25.55
2022-12-18T07:45:43.548Z,25.60
2022-12-18T07:48:49.840Z,26.23
2022-12-18T07:51:56.080Z,26.23
2022-12-18T07:54:58.892Z,26.20
2022-12-18T07:58:03.551Z,25.60
2022-12-18T08:01:11.757Z,26.00
2022-12-18T08:04:14.750Z,23.30
2022-12-18T08:07:17.544Z,26.70
2022-12-18T08:10:21.399Z,25.83
2022-12-18T08:13:24.856Z,24.20
2022-12-18T08:16:27.904Z,23.13
2022-12-18T08:19:30.862Z,22.73
2022-12-18T08:22:38.936Z,22.60
2022-12-18T08:25:41.770Z,21.17
2022-12-18T08:28:45.471Z,20.45
2022-12-18T08:31:53.053Z,21.88
2022-12-18T08:34:55.891Z,20.92
2022-12-18T08:37:58.937Z,20.58
2022-12-18T08:41:07.098Z,20.50
2022-12-18T08:44:28.394Z,20.77
2022-12-18T08:47:31.243Z,20.83
2022-12-18T08:50:34.133Z,19.77
2022-12-18T08:53:38.118Z,18.75
2022-12-18T08:56:41.494Z,20.47
2022-12-18T08:59:44.381Z,20.73
2022-12-18T09:02:47.395Z,20.50
2022-12-18T09:05:50.289Z,18.52
2022-12-18T09:08:53.115Z,17.85
2022-12-18T09:11:56.200Z,17.63
2022-12-18T09:14:59.002Z,18.50
2022-12-18T09:18:01.815Z,19.23
2022-12-18T09:21:20.230Z,18.63
2022-12-18T09:24:26.343Z,17.77
2022-12-18T09:27:30.218Z,17.93
2022-12-18T09:30:35.309Z,16.90
2022-12-18T09:33:39.081Z,17.65
2022-12-18T09:36:42.000Z,18.35
2022-12-18T09:39:46.642Z,18.05
2022-12-18T09:43:00.554Z,16.60
2022-12-18T09:46:10.267Z,18.15
2022-12-18T09:49:17.641Z,16.88
2022-12-18T09:52:45.517Z,15.52
2022-12-18T09:55:50.168Z,15.27
2022-12-18T09:59:02.614Z,14.40
2022-12-18T10:02:22.465Z,15.68
2022-12-18T10:05:41.343Z,16.75
2022-12-18T10:09:05.053Z,15.98
2022-12-18T10:12:10.941Z,14.98
2022-12-18T10:15:25.631Z,14.67
2022-12-18T10:18:38.649Z,15.82
2022-12-18T10:22:00.398Z,16.08
2022-12-18T10:25:16.528Z,16.80
2022-12-18T10:28:21.689Z,17.25
2022-12-18T10:31:25.866Z,16.27
2022-12-18T10:34:28.660Z,17.85
2022-12-18T10:37:31.573Z,18.48
2022-12-18T10:40:53.376Z,20.15
2022-12-18T10:44:13.084Z,23.30
2022-12-18T10:47:20.074Z,17.93
2022-12-18T10:51:01.368Z,17.95
2022-12-18T10:54:16.031Z,20.90
2022-12-18T10:57:27.862Z,20.35
2022-12-18T11:00:31.953Z,19.02
2022-12-18T11:03:38.510Z,18.20
2022-12-18T11:07:04.135Z,18.58
2022-12-18T11:10:17.361Z,20.42
2022-12-18T11:13:23.337Z,18.60
2022-12-18T11:16:27.791Z,18.40
2022-12-18T11:19:38.050Z,17.87
2022-12-18T11:22:41.332Z,18.80
2022-12-18T11:25:53.660Z,18.00
2022-12-18T11:29:12.151Z,17.25
2022-12-18T11:32:30.696Z,17.08
2022-12-18T11:35:51.942Z,17.87
2022-12-18T11:38:56.922Z,18.65
2022-12-18T11:42:15.442Z,18.63
2022-12-18T11:45:28.288Z,18.52
2022-12-18T11:48:47.782Z,18.50
2022-12-18T11:52:11.832Z,16.07
2022-12-18T11:55:17.544Z,16.25
2022-12-18T11:58:29.362Z,17.95
2022-12-18T12:01:44.929Z,16.63
2022-12-18T12:04:52.300Z,15.68
2022-12-18T12:08:07.323Z,16.37
2022-12-18T12:11:31.668Z,16.25
2022-12-18T12:14:53.158Z,15.82
2022-12-18T12:18:23.949Z,14.23
2022-12-18T12:21:35.880Z,15.45
2022-12-18T12:25:09.821Z,15.23
2022-12-18T12:28:15.744Z,16.48
2022-12-18T12:31:23.965Z,17.45
2022-12-18T12:34:54.818Z,15.20
2022-12-18T12:38:12.393Z,18.40
2022-12-18T12:41:38.801Z,15.30
2022-12-18T12:44:52.738Z,15.52
2022-12-18T12:48:00.815Z,17.33
2022-12-18T12:51:11.327Z,15.35
2022-12-18T12:54:25.890Z,14.18
2022-12-18T12:57:57.602Z,14.97
2022-12-18T13:01:28.637Z,12.73
2022-12-18T13:05:05.841Z,13.65
2022-12-18T13:08:11.221Z,18.95
2022-12-18T13:12:01.444Z,16.92
2022-12-18T13:15:36.764Z,15.07
2022-12-18T13:18:59.927Z,14.73
2022-12-18T13:22:02.759Z,17.70
2022-12-18T13:25:36.257Z,14.82
2022-12-18T13:28:48.818Z,16.63
2022-12-18T13:31:59.313Z,16.90
2022-12-18T13:35:21.050Z,17.60
2022-12-18T13:38:35.009Z,16.98
2022-12-18T13:41:38.075Z,16.85
2022-12-18T13:44:42.519Z,16.65
2022-12-18T13:47:45.362Z,18.50
2022-12-18T13:51:18.897Z,17.77
2022-12-18T13:54:38.651Z,18.65
2022-12-18T13:57:42.217Z,18.10
2022-12-18T14:00:45.765Z,19.85
2022-12-18T14:03:49.523Z,20.93
2022-12-18T14:07:05.284Z,16.08
2022-12-18T14:10:44.305Z,16.17
2022-12-18T14:13:43.112Z,16.20
2022-12-18T14:16:48.185Z,18.60
2022-12-18T14:19:52.809Z,17.07
2022-12-18T14:22:57.355Z,20.55
2022-12-18T14:26:06.006Z,18.95
2022-12-18T14:29:29.794Z,18.65
2022-12-18T14:32:32.737Z,20.13
2022-12-18T14:35:44.962Z,21.07
2022-12-18T14:38:56.313Z,19.83
2022-12-18T14:41:59.171Z,20.88
2022-12-18T14:45:43.323Z,20.42
2022-12-18T14:48:48.900Z,22.00
2022-12-18T14:51:55.249Z,21.27
2022-12-18T14:54:58.413Z,21.70
2022-12-18T14:58:01.245Z,23.52
2022-12-18T15:01:04.209Z,24.52
2022-12-18T15:04:24.048Z,28.85
2022-12-18T15:07:27.310Z,22.13
2022-12-18T15:10:32.759Z,25.33
2022-12-18T15:13:35.912Z,25.98
2022-12-18T15:16:42.244Z,29.17
2022-12-18T15:19:52.526Z,32.72
2022-12-18T15:22:55.725Z,35.50
2022-12-18T15:26:01.683Z,34.67
2022-12-18T15:29:04.535Z,41.22
2022-12-18T15:32:20.458Z,40.83
2022-12-18T15:35:25.626Z,40.88
2022-12-18T15:38:28.732Z,38.00
2022-12-18T15:41:35.778Z,44.67
2022-12-18T15:44:39.589Z,48.38
2022-12-18T15:47:45.790Z,43.38
2022-12-18T15:50:49.553Z,44.80
2022-12-18T15:53:55.665Z,43.43
2022-12-18T15:57:18.256Z,27.92
2022-12-18T16:00:21.365Z,36.33
2022-12-18T16:03:24.561Z,33.83
2022-12-18T16:06:40.312Z,31.45
2022-12-18T16:09:52.142Z,28.07
2022-12-18T16:12:55.306Z,27.40
2022-12-18T16:15:58.785Z,19.25
2022-12-18T16:19:02.004Z,23.30
2022-12-18T16:22:07.151Z,23.13
2022-12-18T16:25:23.251Z,26.30
2022-12-18T16:28:26.285Z,26.67
2022-12-18T16:31:29.402Z,22.50
2022-12-18T16:34:35.874Z,22.35
2022-12-18T16:37:40.082Z,21.83
2022-12-18T16:41:03.207Z,27.23
2022-12-18T16:44:07.430Z,22.67
2022-12-18T16:47:11.769Z,27.25
2022-12-18T16:50:18.788Z,20.77
2022-12-18T16:53:21.888Z,24.20
2022-12-18T16:56:25.669Z,23.80
2022-12-18T16:59:29.388Z,37.20
2022-12-18T17:02:33.745Z,26.90
2022-12-18T17:05:36.988Z,29.42
2022-12-18T17:08:40.100Z,25.10
2022-12-18T17:11:44.058Z,29.63
2022-12-18T17:14:47.171Z,23.65
2022-12-18T17:17:51.246Z,22.92
2022-12-18T17:20:59.551Z,21.00
2022-12-18T17:24:03.110Z,20.90
2022-12-18T17:27:06.394Z,20.07
2022-12-18T17:30:10.852Z,26.05
2022-12-18T17:33:14.109Z,27.55
2022-12-18T17:36:17.938Z,28.17
2022-12-18T17:39:22.215Z,17.65
2022-12-18T17:42:26.478Z,19.30
2022-12-18T17:45:29.311Z,26.98
2022-12-18T17:48:33.945Z,30.90
2022-12-18T17:51:37.140Z,30.90
2022-12-18T17:54:42.335Z,23.73
2022-12-18T17:57:46.585Z,23.67
2022-12-18T18:00:50.091Z,23.35
2022-12-18T18:03:56.142Z,23.10
2022-12-18T18:06:59.234Z,22.35
2022-12-18T18:10:04.074Z,24.77
2022-12-18T18:13:46.625Z,27.17
2022-12-18T18:16:52.644Z,31.55
2022-12-18T18:19:55.676Z,30.95
2022-12-18T18:22:59.608Z,31.02
2022-12-18T18:26:05.203Z,31.00
2022-12-18T18:29:12.258Z,29.03
2022-12-18T18:32:15.578Z,29.00
2022-12-18T18:35:45.092Z,36.58
2022-12-18T18:38:46.710Z,31.00
2022-12-18T18:41:51.989Z,28.55
2022-12-18T18:44:55.139Z,30.03
2022-12-18T18:47:59.198Z,29.65
2022-12-18T18:51:08.133Z,30.88
2022-12-18T18:54:11.689Z,30.98
2022-12-18T18:57:24.239Z,31.95
2022-12-18T19:00:29.059Z,31.77
2022-12-18T19:03:33.453Z,32.55
2022-12-18T19:06:36.485Z,33.63
2022-12-18T19:09:40.448Z,32.35
2022-12-18T19:13:01.825Z,33.53
2022-12-18T19:16:08.028Z,32.67
2022-12-18T19:19:13.194Z,33.22
2022-12-18T19:22:16.461Z,41.00
2022-12-18T19:25:19.686Z,43.97
2022-12-18T19:28:32.093Z,53.50
2022-12-18T19:31:37.126Z,61.10
2022-12-18T19:34:40.559Z,58.58
2022-12-18T19:37:43.818Z,58.28
2022-12-18T19:40:46.893Z,65.88
2022-12-18T19:43:51.478Z,69.30
2022-12-18T19:46:54.554Z,59.17
2022-12-18T19:49:57.626Z,55.30
2022-12-18T19:53:01.114Z,56.28
2022-12-18T19:56:09.328Z,53.88
2022-12-18T19:59:12.937Z,51.63
2022-12-18T20:02:15.942Z,50.07
2022-12-18T20:05:25.122Z,48.03
2022-12-18T20:08:28.150Z,47.45
2022-12-18T20:11:32.153Z,48.97
2022-12-18T20:14:35.818Z,46.67
2022-12-18T20:17:39.332Z,43.33
2022-12-18T20:20:42.155Z,43.30
2022-12-18T20:23:45.694Z,44.33
2022-12-18T20:26:48.901Z,46.95
2022-12-18T20:29:52.071Z,53.63
2022-12-18T20:32:55.178Z,58.00
2022-12-18T20:36:21.350Z,60.10
2022-12-18T20:39:27.648Z,59.92
2022-12-18T20:42:31.422Z,60.65
2022-12-18T20:45:34.382Z,57.15
2022-12-18T20:48:39.083Z,53.23
2022-12-18T20:51:42.054Z,45.63
2022-12-18T20:54:45.112Z,41.05
2022-12-18T20:57:48.554Z,37.83
2022-12-18T21:01:02.446Z,34.97
2022-12-18T21:04:05.659Z,30.67
2022-12-18T21:07:08.705Z,30.10
2022-12-18T21:10:11.761Z,30.23
2022-12-18T21:13:14.529Z,27.52
2022-12-18T21:16:19.449Z,30.00
2022-12-18T21:19:25.585Z,27.33
2022-12-18T21:22:28.918Z,29.25
2022-12-18T21:25:31.790Z,30.90
2022-12-18T21:28:34.617Z,30.27
2022-12-18T21:31:39.334Z,29.98
2022-12-18T21:34:47.850Z,29.33
2022-12-18T21:37:51.091Z,29.17
2022-12-18T21:40:54.005Z,28.77
2022-12-18T21:44:06.089Z,32.05
2022-12-18T21:47:21.848Z,33.20
2022-12-18T21:50:26.190Z,41.07
2022-12-18T21:53:28.966Z,66.35
2022-12-18T21:56:44.110Z,71.18
2022-12-18T21:59:46.908Z,80.93
2022-12-18T22:03:17.547Z,93.18
2022-12-18T22:06:13.022Z,93.77
2022-12-18T22:09:19.292Z,98.53
2022-12-18T22:12:35.831Z,100.65
2022-12-18T22:15:47.000Z,91.93
2022-12-18T22:18:49.962Z,87.68
2022-12-18T22:21:53.286Z,85.37
2022-12-18T22:24:56.137Z,53.70
2022-12-18T22:28:17.658Z,47.22
2022-12-18T22:31:20.496Z,35.72
2022-12-18T22:34:23.513Z,26.92
2022-12-18T22:37:26.491Z,32.27
2022-12-18T22:40:29.924Z,32.03
2022-12-18T22:43:33.517Z,30.90
2022-12-18T22:46:39.433Z,28.70
2022-12-18T22:49:42.417Z,24.70
2022-12-18T22:52:45.212Z,23.47
2022-12-18T22:55:48.064Z,23.20
2022-12-18T22:58:51.837Z,29.05
2022-12-18T23:01:59.104Z,28.05
2022-12-18T23:05:02.523Z,21.58
2022-12-18T23:08:05.392Z,20.07
2022-12-18T23:11:08.967Z,22.65
2022-12-18T23:14:12.370Z,20.58
2022-12-18T23:17:15.186Z,21.98
2022-12-18T23:20:17.942Z,23.23
2022-12-18T23:23:20.708Z,22.00
2022-12-18T23:26:25.860Z,22.52
2022-12-18T23:29:28.586Z,24.50
2022-12-18T23:32:31.424Z,24.25
2022-12-18T23:35:35.819Z,22.20
2022-12-18T23:38:38.977Z,22.67
2022-12-18T23:41:41.718Z,21.77
2022-12-18T23:44:44.426Z,20.77
2022-12-18T23:47:48.265Z,22.95
2022-12-18T23:50:54.168Z,22.25
2022-12-18T23:53:59.256Z,23.40
2022-12-18T23:57:02.234Z,22.88
